Igo, California
Current Conditions -  °F | °C
As of 9:53 AM on Saturday 20 Dec 2014 (Local Time) from KRDD Reporting Station
Haze Haze  
Wind Chill: 52°   Ceiling: 400
Heat Index: 52°   Visibility: 2mi
Dew Point: 51°   Wind: 15mph
Humidity: 97%   Direction: 180°S
Pressure: 30.13"   Gusts: NA
Location:  40.51°N, 122.54°W
Report Text: KRDD 201753Z 18013KT 2SM BR OVC004 11/11 A3013 RMK AO2 RAE14 SLP203 P0000 60011 T01110106 10111 20106 51009
Loading
Personal Weather Stations






























Interactive Weather Map New forecast layout! Learn more

10-Day Weather Forecast

Advertisements
Track Severe Weather on mobile